Mount Magnet, Australia
Current Conditions -  °F | °C
As of 4:00 AM on Thursday 29 Jan 2015 (Local Time) from YMEK Reporting Station
Clear Clear  
Wind Chill: 79°   Ceiling: Unl
Heat Index: 80°   Visibility: 6mi
Dew Point: 59°   Wind: 14mph
Humidity: 51%   Direction: 60°ENE
Pressure: 29.77"   Gusts: NA
Location:  28.06°S, 117.85°E
Report Text: YMEK 282000Z AUTO 06012KT 9999 // NCD 26/15 Q1008
Loading
Personal Weather Stations






























Interactive Weather Map New forecast layout! Learn more

10-Day Weather Forecast

Advertisements
Track Severe Weather on mobile